Time;durP1;ratioP1;P1;durP2;ratioP2;P2;SDS_P1;SDS_P2;PMS_P1;PMS_P2;Temp;Humidity;BMP_temperature;BMP_pressure;BME280_temperature;BME280_humidity;BME280_pressure;Samples;Min_cycle;Max_cycle;Signal;HPM_P1;HPM_P2
2023/10/17 00:01:34;;;;;;;19.85;12.80;;;154.40;2252.80;;;;;;4989475;28;20034;-63
2023/10/17 00:07:02;;;;;;;20.17;12.45;;;154.40;2252.80;;;;;;4930484;29;20066;-66
2023/10/17 00:09:29;;;;;;;23.55;13.55;;;154.50;2252.80;;;;;;4932249;29;20094;-63
2023/10/17 00:14:27;;;;;;;17.85;11.90;;;154.50;2252.80;;;;;;4912122;29;20068;-67
2023/10/17 00:16:57;;;;;;;16.38;11.02;;;154.50;2252.80;;;;;;4916514;29;20401;-66
2023/10/17 00:19:26;;;;;;;14.63;10.07;;;154.50;2252.80;;;;;;4916044;29;20044;-69
2023/10/17 00:21:52;;;;;;;12.82;9.73;;;154.50;2252.80;;;;;;4912952;29;20036;-66
2023/10/17 00:24:23;;;;;;;16.90;11.30;;;154.50;2252.80;;;;;;4908061;29;20126;-63
2023/10/17 00:26:49;;;;;;;16.58;11.77;;;179.20;2252.80;;;;;;4911088;29;20084;-65
2023/10/17 00:29:14;;;;;;;14.25;9.80;;;154.50;2252.80;;;;;;4912929;29;20106;-65
2023/10/17 00:31:41;;;;;;;14.73;10.98;;;154.50;2252.80;;;;;;4911005;29;20747;-66
2023/10/17 00:34:21;;;;;;;19.60;10.82;;;154.50;2252.80;;;;;;4902327;29;20048;-64
2023/10/17 00:36:50;;;;;;;13.20;10.48;;;154.40;2252.80;;;;;;4899615;29;20080;-64
2023/10/17 00:39:30;;;;;;;19.27;10.80;;;154.40;2252.80;;;;;;4902048;29;20044;-64
2023/10/17 00:44:31;;;;;;;31.40;19.08;;;154.40;2252.80;;;;;;4951780;28;20054;-65
2023/10/17 00:46:58;;;;;;;21.73;14.60;;;154.40;2252.80;;;;;;4972224;28;20034;-65
2023/10/17 00:49:25;;;;;;;21.15;12.10;;;154.40;2252.80;;;;;;4969803;28;20031;-64
2023/10/17 00:51:55;;;;;;;13.35;8.95;;;154.40;2252.80;;;;;;4951423;28;20027;-66
2023/10/17 00:54:24;;;;;;;20.85;11.10;;;154.40;2252.80;;;;;;4967044;28;20050;-66
2023/10/17 00:56:51;;;;;;;16.92;10.07;;;154.30;2252.80;;;;;;4971934;28;20026;-65
2023/10/17 00:59:17;;;;;;;13.77;8.57;;;154.30;2252.80;;;;;;4954419;28;20070;-62
2023/10/17 01:01:48;;;;;;;14.60;9.85;;;154.40;2252.80;;;;;;4963777;28;20020;-63
2023/10/17 01:04:14;;;;;;;12.18;9.90;;;154.50;2252.80;;;;;;4967770;28;20035;-64
2023/10/17 01:06:41;;;;;;;15.10;10.20;;;154.50;2252.80;;;;;;4971991;28;20027;-65
2023/10/17 01:09:25;;;;;;;13.10;9.23;;;154.50;2252.80;;;;;;4971019;28;20031;-65
2023/10/17 01:11:57;;;;;;;14.93;9.35;;;154.40;2252.80;;;;;;4971413;28;20074;-66
2023/10/17 01:14:23;;;;;;;12.65;9.05;;;154.40;2252.80;;;;;;4971996;28;20098;-65
2023/10/17 01:16:53;;;;;;;13.85;9.32;;;154.40;2252.80;;;;;;4970949;28;20031;-66
2023/10/17 01:19:20;;;;;;;12.45;7.53;;;154.50;2252.80;;;;;;4971313;28;20433;-63
2023/10/17 01:21:46;;;;;;;9.23;7.32;;;179.20;2252.80;;;;;;4963788;28;20030;-65
2023/10/17 01:24:12;;;;;;;12.45;8.85;;;179.20;2252.80;;;;;;4946286;28;20035;-63
2023/10/17 01:26:38;;;;;;;12.52;9.13;;;179.20;2252.80;;;;;;4968871;28;20031;-64
2023/10/17 01:29:11;;;;;;;19.02;10.07;;;179.20;2252.80;;;;;;4971193;28;20038;-66
2023/10/17 01:31:39;;;;;;;15.23;9.87;;;179.20;2252.80;;;;;;4969644;28;20061;-65
2023/10/17 01:34:08;;;;;;;32.90;10.60;;;179.20;2252.80;;;;;;4967656;28;20031;-64
2023/10/17 01:36:35;;;;;;;15.40;11.18;;;179.20;2252.80;;;;;;4971643;28;20023;-61
2023/10/17 01:39:10;;;;;;;16.77;11.02;;;179.20;2252.80;;;;;;4971301;28;20117;-64
2023/10/17 01:41:48;;;;;;;15.30;11.45;;;179.20;2252.80;;;;;;4971095;28;20015;-66
2023/10/17 01:44:14;;;;;;;15.55;12.20;;;154.50;2252.80;;;;;;4965421;28;20043;-63
2023/10/17 01:46:43;;;;;;;17.55;11.93;;;179.20;2252.80;;;;;;4971269;28;20026;-66
2023/10/17 01:49:13;;;;;;;16.58;11.85;;;154.50;2252.80;;;;;;4970767;28;20035;-63
2023/10/17 01:51:48;;;;;;;19.60;12.13;;;154.50;2252.80;;;;;;4971259;28;20039;-65
2023/10/17 01:54:16;;;;;;;14.15;9.70;;;179.20;2252.80;;;;;;4970192;28;20023;-64
2023/10/17 01:56:49;;;;;;;15.35;10.68;;;154.50;2252.80;;;;;;4969990;28;20031;-63
2023/10/17 01:59:25;;;;;;;10.37;8.93;;;154.40;2252.80;;;;;;4959953;28;20030;-65
2023/10/17 02:01:51;;;;;;;11.40;9.48;;;154.40;2252.80;;;;;;4953761;28;20291;-66
2023/10/17 02:04:19;;;;;;;14.40;10.60;;;154.50;2252.80;;;;;;4970172;28;20014;-66
2023/10/17 02:06:47;;;;;;;14.52;10.73;;;154.30;2252.80;;;;;;4970479;28;20057;-65
2023/10/17 02:09:46;;;;;;;13.52;10.90;;;154.10;2252.80;;;;;;4966188;28;20038;-65
2023/10/17 02:12:05;;;;;;;17.23;11.35;;;154.10;2252.80;;;;;;4969831;28;20089;-64
2023/10/17 02:14:31;;;;;;;14.00;10.40;;;153.90;2252.80;;;;;;4989722;28;20039;-65
2023/10/17 02:16:59;;;;;;;15.02;11.40;;;154.10;2252.80;;;;;;4989795;28;20473;-65
2023/10/17 02:19:31;;;;;;;15.27;10.75;;;154.10;2252.80;;;;;;4989620;28;20049;-64
2023/10/17 02:22:01;;;;;;;14.55;9.35;;;153.90;2252.80;;;;;;4989926;28;20034;-64
2023/10/17 02:24:29;;;;;;;13.30;10.23;;;154.10;2252.80;;;;;;4988821;28;20073;-64
2023/10/17 02:26:56;;;;;;;15.27;10.70;;;154.10;2252.80;;;;;;4975279;28;20092;-64
2023/10/17 02:29:26;;;;;;;15.60;10.75;;;154.20;2252.80;;;;;;4973341;28;20038;-64
2023/10/17 02:31:56;;;;;;;15.18;9.95;;;154.20;2252.80;;;;;;4969344;28;20027;-64
2023/10/17 02:34:31;;;;;;;14.10;10.57;;;154.20;2252.80;;;;;;4983372;28;20041;-65
2023/10/17 02:37:00;;;;;;;18.50;12.23;;;154.20;2252.80;;;;;;4989320;28;20033;-64
2023/10/17 02:39:25;;;;;;;17.88;10.23;;;154.30;2252.80;;;;;;4989117;28;20049;-65
2023/10/17 02:42:06;;;;;;;14.35;9.50;;;154.30;2252.80;;;;;;4989389;28;20022;-65
2023/10/17 02:44:32;;;;;;;13.48;10.15;;;154.30;2252.80;;;;;;4989252;28;20117;-64
2023/10/17 02:46:58;;;;;;;13.38;10.27;;;154.30;2252.80;;;;;;4988921;28;20030;-65
2023/10/17 02:49:27;;;;;;;17.65;9.63;;;154.30;2252.80;;;;;;4989472;28;20123;-63
2023/10/17 02:51:54;;;;;;;12.88;9.35;;;154.30;2252.80;;;;;;4989443;28;20015;-64
2023/10/17 02:54:27;;;;;;;20.40;15.10;;;154.10;2252.80;;;;;;4989389;28;20058;-65
2023/10/17 02:56:53;;;;;;;15.97;11.10;;;154.00;2252.80;;;;;;4988489;28;20038;-64
2023/10/17 02:59:21;;;;;;;17.83;10.88;;;154.10;2252.80;;;;;;4989584;28;20081;-61
2023/10/17 03:01:52;;;;;;;14.65;10.63;;;154.00;2252.80;;;;;;4989165;28;20058;-65
2023/10/17 03:04:23;;;;;;;14.73;10.05;;;153.90;2252.80;;;;;;4989195;28;20379;-63
2023/10/17 03:06:56;;;;;;;16.35;9.95;;;153.80;2252.80;;;;;;4970361;28;20493;-64
2023/10/17 03:12:06;;;;;;;19.40;12.40;;;153.70;2252.80;;;;;;4988814;28;20033;-66
2023/10/17 03:15:18;;;;;;;17.23;9.60;;;153.60;2252.80;;;;;;4970212;28;20054;-66
2023/10/17 03:17:27;;;;;;;15.52;9.55;;;153.60;2252.80;;;;;;4969935;28;20065;-66
2023/10/17 03:19:53;;;;;;;15.45;9.95;;;153.60;2252.80;;;;;;4969860;28;20485;-66
2023/10/17 03:22:20;;;;;;;14.40;9.85;;;153.60;2252.80;;;;;;4969457;28;20023;-65
2023/10/17 03:24:46;;;;;;;17.02;11.20;;;153.60;2252.80;;;;;;4969223;28;20485;-65
2023/10/17 03:27:36;;;;;;;17.42;10.57;;;153.60;2252.80;;;;;;4970258;28;20446;-65
2023/10/17 03:30:11;;;;;;;17.10;10.18;;;153.60;2252.80;;;;;;4969519;28;20043;-63
2023/10/17 03:35:25;;;;;;;23.05;11.50;;;128.80;2252.80;;;;;;4965211;28;20058;-62
2023/10/17 03:37:51;;;;;;;12.65;10.25;;;128.80;2252.80;;;;;;4952849;28;20028;-61
2023/10/17 03:40:19;;;;;;;13.15;9.35;;;128.80;2252.80;;;;;;4968918;28;20042;-61
2023/10/17 03:42:53;;;;;;;15.60;9.45;;;128.90;2252.80;;;;;;4969626;28;20031;-64
2023/10/17 03:45:25;;;;;;;15.43;9.18;;;128.90;2252.80;;;;;;4961606;28;20034;-64
2023/10/17 03:47:59;;;;;;;15.27;9.88;;;128.90;2252.80;;;;;;4972765;28;20031;-60
2023/10/17 03:50:33;;;;;;;18.05;11.27;;;128.90;2252.80;;;;;;4973517;28;20031;-63
2023/10/17 03:53:15;;;;;;;16.88;10.60;;;153.60;2252.80;;;;;;4972518;28;20031;-64
2023/10/17 03:55:48;;;;;;;14.68;10.73;;;128.90;2252.80;;;;;;4972650;28;20027;-64
2023/10/17 03:58:28;;;;;;;14.90;10.43;;;128.90;2252.80;;;;;;4949281;28;20027;-62
2023/10/17 04:01:07;;;;;;;13.20;9.98;;;128.90;2252.80;;;;;;4972474;28;20066;-61
2023/10/17 04:03:34;;;;;;;15.80;10.10;;;153.60;2252.80;;;;;;4973061;28;20023;-66
2023/10/17 04:06:02;;;;;;;18.40;10.05;;;153.60;2252.80;;;;;;4962755;28;20031;-65
2023/10/17 04:08:31;;;;;;;16.95;10.10;;;153.70;2252.80;;;;;;4945925;28;20035;-63
2023/10/17 04:13:42;;;;;;;13.70;9.63;;;153.70;2252.80;;;;;;4972019;28;20405;-63
2023/10/17 04:16:16;;;;;;;14.25;10.52;;;153.70;2252.80;;;;;;4972788;28;20039;-65
2023/10/17 04:18:45;;;;;;;15.75;10.32;;;153.80;2252.80;;;;;;4972347;28;20381;-64
2023/10/17 04:21:27;;;;;;;12.68;9.48;;;153.80;2252.80;;;;;;4972833;28;20485;-62
2023/10/17 04:23:55;;;;;;;17.27;10.15;;;153.80;2252.80;;;;;;4950800;28;20033;-63
2023/10/17 04:26:34;;;;;;;12.50;10.02;;;153.80;2252.80;;;;;;4972529;28;20045;-66
2023/10/17 04:29:11;;;;;;;20.73;13.50;;;153.80;2252.80;;;;;;4972819;28;20485;-65
2023/10/17 04:31:43;;;;;;;14.07;10.25;;;153.70;2252.80;;;;;;4971205;28;20469;-64
2023/10/17 04:34:14;;;;;;;14.05;9.63;;;153.60;2252.80;;;;;;4972684;28;20061;-66
2023/10/17 04:36:41;;;;;;;13.02;9.98;;;153.80;2252.80;;;;;;4953217;28;20031;-66
2023/10/17 04:39:25;;;;;;;13.50;10.73;;;153.80;2252.80;;;;;;4963380;28;20053;-64
2023/10/17 04:44:31;;;;;;;16.30;9.75;;;153.90;2252.80;;;;;;4972476;28;20105;-65
2023/10/17 04:49:36;;;;;;;17.75;10.02;;;153.90;2252.80;;;;;;4972459;28;20034;-65
2023/10/17 04:52:06;;;;;;;13.45;10.18;;;153.90;2252.80;;;;;;4972294;28;20042;-67
2023/10/17 04:57:04;;;;;;;22.10;13.80;;;154.00;2252.80;;;;;;4975594;28;20031;-66
2023/10/17 06:18:49;;;;;;;14.52;10.18;;;230.50;2252.80;;;;;;4966263;28;20041;-66
2023/10/17 06:21:19;;;;;;;14.70;9.60;;;230.80;2252.80;;;;;;4977427;28;20042;-68
2023/10/17 06:34:17;;;;;;;16.17;11.70;;;256.00;2252.80;;;;;;4970966;28;20030;-65
2023/10/17 06:36:44;;;;;;;16.48;13.05;;;256.30;2252.80;;;;;;4967317;28;20042;-66
2023/10/17 06:39:19;;;;;;;16.35;12.90;;;256.50;2252.80;;;;;;4971036;28;20404;-65
2023/10/17 06:41:47;;;;;;;19.70;12.52;;;256.60;2252.80;;;;;;4971781;28;20030;-66
2023/10/17 06:44:22;;;;;;;16.50;12.48;;;256.60;2252.80;;;;;;4963353;28;20102;-64
2023/10/17 06:47:07;;;;;;;21.67;12.13;;;256.50;2252.80;;;;;;4965140;28;20042;-67
2023/10/17 06:54:55;;;;;;;17.00;13.70;;;256.10;2252.80;;;;;;4939280;28;20055;-67
2023/10/17 06:57:33;;;;;;;16.48;11.90;;;231.30;2252.80;;;;;;4968532;28;20477;-64
2023/10/17 07:00:16;;;;;;;15.18;11.02;;;231.20;2252.80;;;;;;4961082;28;20141;-66
2023/10/17 07:02:48;;;;;;;18.63;11.43;;;231.00;2252.80;;;;;;4967501;28;20038;-64
2023/10/17 07:05:14;;;;;;;23.35;20.63;;;230.90;2252.80;;;;;;4965051;28;20398;-65
2023/10/17 07:07:41;;;;;;;17.73;12.20;;;230.90;2252.80;;;;;;4968510;28;20022;-65
2023/10/17 07:10:24;;;;;;;15.10;11.63;;;230.80;2252.80;;;;;;4966563;28;20066;-67
2023/10/17 07:13:27;;;;;;;13.43;10.77;;;230.90;2252.80;;;;;;4966858;28;20042;-65
2023/10/17 07:15:54;;;;;;;18.90;13.52;;;231.10;2252.80;;;;;;4966955;28;20019;-67
2023/10/17 07:18:43;;;;;;;18.33;12.90;;;256.00;2252.80;;;;;;4967646;28;20034;-67
2023/10/17 07:23:41;;;;;;;23.02;14.57;;;231.30;2252.80;;;;;;4969270;28;20031;-67
2023/10/17 07:28:56;;;;;;;19.13;16.80;;;256.20;2252.80;;;;;;4929588;29;20721;-66
2023/10/17 07:31:22;;;;;;;18.55;13.88;;;256.40;2252.80;;;;;;4927349;29;20063;-67
2023/10/17 07:36:43;;;;;;;17.80;14.18;;;256.70;2252.80;;;;;;4924738;29;20449;-68
2023/10/17 07:41:53;;;;;;;17.20;14.43;;;281.70;2278.40;;;;;;4930986;29;20122;-67
2023/10/17 07:44:22;;;;;;;16.95;12.77;;;281.70;2278.40;;;;;;4926315;29;20040;-66
2023/10/17 07:47:09;;;;;;;18.40;14.60;;;281.70;2278.40;;;;;;4928778;29;20418;-68
2023/10/17 07:49:43;;;;;;;17.25;12.77;;;281.90;2278.40;;;;;;4929853;29;20102;-69
2023/10/17 07:52:12;;;;;;;17.50;13.25;;;282.20;2278.40;;;;;;4926816;29;20558;-68
2023/10/17 07:54:45;;;;;;;18.77;13.38;;;282.50;2278.40;;;;;;4926456;29;20036;-66
2023/10/17 07:57:17;;;;;;;19.77;13.20;;;282.50;2278.40;;;;;;4937715;29;20462;-67
2023/10/17 07:59:52;;;;;;;14.50;11.17;;;307.30;2304.00;;;;;;4928430;29;20098;-67
2023/10/17 08:02:20;;;;;;;18.48;11.50;;;307.30;2304.00;;;;;;4926666;29;20290;-67
2023/10/17 08:04:48;;;;;;;13.65;11.75;;;307.40;2304.00;;;;;;4928235;28;20028;-66
2023/10/17 08:07:15;;;;;;;13.00;10.40;;;307.50;2304.00;;;;;;4964730;28;20118;-67
2023/10/17 08:09:50;;;;;;;18.60;12.57;;;307.70;2304.00;;;;;;4966917;28;20261;-68
2023/10/17 08:12:22;;;;;;;17.42;11.48;;;307.80;2304.00;;;;;;4971438;28;20580;-67
2023/10/17 08:14:57;;;;;;;17.27;11.80;;;307.80;2304.00;;;;;;4972023;28;20039;-67
2023/10/17 08:17:28;;;;;;;12.27;11.07;;;307.90;2304.00;;;;;;4982525;28;20106;-66
2023/10/17 08:25:25;;;;;;;13.77;10.63;;;307.80;2304.00;;;;;;4967992;28;20042;-66
2023/10/17 08:27:54;;;;;;;12.90;9.88;;;307.80;2304.00;;;;;;4969024;28;20012;-66
2023/10/17 08:30:34;;;;;;;16.13;12.77;;;307.90;2304.00;;;;;;4967191;28;20026;-66
2023/10/17 08:35:36;;;;;;;16.02;11.65;;;307.80;2304.00;;;;;;4982039;28;20026;-64
2023/10/17 08:38:03;;;;;;;17.15;12.05;;;307.80;2304.00;;;;;;4975523;28;20023;-65
2023/10/17 08:40:29;;;;;;;26.90;23.85;;;307.90;2304.00;;;;;;4970678;28;20034;-66
2023/10/17 08:43:22;;;;;;;17.25;12.10;;;308.10;2304.00;;;;;;4960996;28;20563;-65
2023/10/17 08:45:59;;;;;;;18.60;16.67;;;308.10;2304.00;;;;;;4969944;28;20085;-68
2023/10/17 08:48:26;;;;;;;17.13;11.82;;;332.80;2329.60;;;;;;4972693;28;20046;-65
2023/10/17 08:50:55;;;;;;;13.40;10.48;;;332.90;2329.60;;;;;;4968495;28;20190;-65
2023/10/17 08:53:23;;;;;;;15.27;12.27;;;333.00;2329.60;;;;;;4972953;28;20014;-66
2023/10/17 08:55:50;;;;;;;14.10;10.00;;;333.10;2329.60;;;;;;4966171;28;20106;-66
2023/10/17 08:58:30;;;;;;;15.38;10.90;;;333.20;2329.60;;;;;;4973645;28;20023;-64
2023/10/17 09:00:57;;;;;;;18.75;12.20;;;333.20;2329.60;;;;;;4969518;28;20085;-66
2023/10/17 09:03:37;;;;;;;323.45;186.73;;;333.20;2329.60;;;;;;4969274;28;20034;-66
2023/10/17 09:11:34;;;;;;;27.08;19.20;;;333.30;2329.60;;;;;;4966061;28;20026;-65
2023/10/17 09:14:24;;;;;;;32.45;20.55;;;333.30;2329.60;;;;;;4971241;28;20065;-65
2023/10/17 09:17:10;;;;;;;36.47;26.30;;;333.40;2329.60;;;;;;4973051;28;20115;-67
2023/10/17 09:19:47;;;;;;;35.70;24.33;;;333.40;2329.60;;;;;;4964853;28;20552;-64
2023/10/17 09:22:17;;;;;;;34.10;22.65;;;333.60;2329.60;;;;;;4970941;28;20030;-67
2023/10/17 09:24:49;;;;;;;24.17;18.02;;;333.60;2329.60;;;;;;4973003;28;20031;-65
2023/10/17 09:27:16;;;;;;;30.17;18.67;;;333.70;2329.60;;;;;;4974163;28;20030;-65
2023/10/17 09:29:47;;;;;;;23.98;17.30;;;358.40;2329.60;;;;;;4969517;28;20473;-66
2023/10/17 09:32:38;;;;;;;27.83;19.08;;;358.60;2329.60;;;;;;4969517;28;20102;-66
2023/10/17 09:35:15;;;;;;;25.42;18.55;;;358.60;2329.60;;;;;;4974106;28;20166;-67
2023/10/17 09:37:43;;;;;;;23.85;16.50;;;358.50;2329.60;;;;;;4967468;28;20475;-66
2023/10/17 09:40:13;;;;;;;24.88;16.38;;;358.70;2329.60;;;;;;4967365;28;20038;-67
2023/10/17 09:42:46;;;;;;;21.05;15.48;;;358.80;2329.60;;;;;;4973671;28;20025;-66
2023/10/17 09:45:13;;;;;;;27.73;18.75;;;358.80;2329.60;;;;;;4971398;28;20026;-68
2023/10/17 09:47:42;;;;;;;26.38;15.90;;;358.60;2329.60;;;;;;4970530;28;20166;-66
2023/10/17 09:50:13;;;;;;;24.42;18.30;;;358.40;2329.60;;;;;;4973924;28;20034;-66
2023/10/17 09:52:40;;;;;;;24.45;17.23;;;358.40;2329.60;;;;;;4957938;28;20019;-66
2023/10/17 09:55:09;;;;;;;27.42;18.58;;;358.50;2329.60;;;;;;4962615;28;20046;-66
2023/10/17 09:57:40;;;;;;;24.85;17.75;;;333.40;2329.60;;;;;;4968828;28;20022;-66
2023/10/17 10:00:14;;;;;;;24.88;18.02;;;333.40;2329.60;;;;;;4967105;28;20512;-66
2023/10/17 10:02:43;;;;;;;23.77;18.38;;;333.70;2329.60;;;;;;4980698;28;20477;-67
2023/10/17 10:05:24;;;;;;;28.42;17.83;;;358.40;2329.60;;;;;;4970676;28;20469;-68
2023/10/17 10:07:53;;;;;;;28.42;18.92;;;358.40;2329.60;;;;;;4965829;28;20045;-68
2023/10/17 10:10:52;;;;;;;24.80;15.68;;;358.40;2329.60;;;;;;4966058;28;20046;-68
2023/10/17 10:13:19;;;;;;;19.70;13.75;;;358.50;2329.60;;;;;;4964070;28;20528;-68
2023/10/17 10:16:02;;;;;;;22.17;12.38;;;358.50;2329.60;;;;;;4962339;28;20438;-67
2023/10/17 10:18:34;;;;;;;15.80;8.45;;;358.50;2329.60;;;;;;4964369;28;20034;-66
2023/10/17 10:21:01;;;;;;;16.33;10.85;;;358.60;2329.60;;;;;;4966360;28;20034;-67
2023/10/17 10:23:45;;;;;;;19.23;9.52;;;358.70;2329.60;;;;;;4974993;28;20085;-67
2023/10/17 10:26:31;;;;;;;18.73;12.02;;;358.80;2329.60;;;;;;4979217;28;20113;-68
2023/10/17 10:29:22;;;;;;;22.63;10.75;;;359.10;2329.60;;;;;;4926733;29;20039;-68
2023/10/17 10:31:47;;;;;;;20.92;11.30;;;359.00;2329.60;;;;;;4925785;29;20041;-67
2023/10/17 10:34:13;;;;;;;21.67;10.30;;;358.90;2304.00;;;;;;4915530;29;20035;-67
2023/10/17 10:36:40;;;;;;;15.00;10.70;;;333.70;2329.60;;;;;;4915745;29;20522;-68
2023/10/17 10:39:13;;;;;;;20.20;10.48;;;358.80;2304.00;;;;;;4915053;29;20107;-67
2023/10/17 10:42:00;;;;;;;17.13;10.68;;;359.20;2329.60;;;;;;4922823;29;20524;-67
2023/10/17 10:44:26;;;;;;;27.38;14.30;;;384.00;2252.80;;;;;;4922092;29;20486;-70
2023/10/17 10:46:56;;;;;;;17.83;12.32;;;384.10;2278.40;;;;;;4919011;29;20128;-72
2023/10/17 10:49:26;;;;;;;36.33;17.85;;;384.30;2278.40;;;;;;4915411;29;20051;-68
2023/10/17 10:51:52;;;;;;;22.40;12.90;;;384.00;2227.20;;;;;;4919710;29;20024;-73
2023/10/17 10:54:18;;;;;;;22.80;16.98;;;359.10;2227.20;;;;;;4922360;29;20044;-67
2023/10/17 10:56:52;;;;;;;15.50;9.15;;;358.80;2278.40;;;;;;4924893;29;20482;-69
2023/10/17 10:59:22;;;;;;;20.27;11.50;;;359.00;2227.20;;;;;;4914512;29;20051;-68
2023/10/17 11:01:48;;;;;;;16.38;10.82;;;359.30;2252.80;;;;;;4921772;29;20067;-67
2023/10/17 11:04:14;;;;;;;13.15;9.90;;;359.30;2252.80;;;;;;4919756;29;20096;-67
2023/10/17 11:06:41;;;;;;;14.85;8.65;;;384.10;2252.80;;;;;;4959999;28;20489;-67
2023/10/17 11:09:09;;;;;;;16.23;12.00;;;384.30;2227.20;;;;;;4977006;28;20042;-67
2023/10/17 11:11:45;;;;;;;12.55;8.80;;;384.40;2227.20;;;;;;4973664;28;20038;-68
2023/10/17 11:14:16;;;;;;;11.25;8.25;;;384.60;2176.00;;;;;;4967655;28;20058;-68
2023/10/17 11:16:42;;;;;;;15.80;9.85;;;384.90;2176.00;;;;;;4975598;28;20030;-68
2023/10/17 11:19:19;;;;;;;14.82;7.95;;;384.90;2176.00;;;;;;4976957;28;20034;-68
2023/10/17 11:21:52;;;;;;;12.20;7.15;;;409.60;2124.80;;;;;;4973248;28;20058;-67
2023/10/17 11:24:19;;;;;;;12.07;6.38;;;384.90;2099.20;;;;;;4975944;28;20065;-69
2023/10/17 11:26:45;;;;;;;12.48;6.95;;;384.60;2124.80;;;;;;4974780;28;20035;-68
2023/10/17 11:29:12;;;;;;;11.52;7.57;;;384.70;2124.80;;;;;;4976462;28;20065;-67
2023/10/17 11:31:41;;;;;;;10.23;7.45;;;384.80;2073.60;;;;;;4974270;28;20038;-68
2023/10/17 11:34:07;;;;;;;15.70;9.68;;;384.80;2073.60;;;;;;4973961;28;20030;-69
2023/10/17 11:36:54;;;;;;;15.77;10.13;;;384.60;2099.20;;;;;;4972332;28;20030;-68
2023/10/17 11:39:20;;;;;;;16.27;9.30;;;384.40;2124.80;;;;;;4970717;28;20125;-68
2023/10/17 11:41:53;;;;;;;11.85;8.80;;;384.50;2124.80;;;;;;4977911;28;20495;-67
2023/10/17 11:44:24;;;;;;;18.50;12.13;;;384.70;2099.20;;;;;;4972290;28;20035;-67
2023/10/17 11:47:03;;;;;;;23.98;16.08;;;384.60;2124.80;;;;;;4978548;28;20050;-68
2023/10/17 11:49:47;;;;;;;20.83;10.80;;;384.40;2150.40;;;;;;4968610;28;20059;-69
2023/10/17 11:52:13;;;;;;;15.35;9.00;;;384.70;2150.40;;;;;;4972419;28;20027;-69
2023/10/17 11:55:04;;;;;;;14.98;8.85;;;384.90;2150.40;;;;;;4963793;28;20034;-70
2023/10/17 11:57:33;;;;;;;10.43;8.05;;;384.80;2176.00;;;;;;4966939;28;20035;-68
2023/10/17 12:00:06;;;;;;;11.98;8.82;;;384.60;2176.00;;;;;;4969582;28;20041;-67
2023/10/17 12:02:32;;;;;;;11.55;9.77;;;384.20;2150.40;;;;;;4974662;28;20035;-66
2023/10/17 12:05:01;;;;;;;11.20;9.07;;;384.10;2150.40;;;;;;4974510;28;20034;-68
2023/10/17 12:07:29;;;;;;;11.52;8.50;;;384.20;2150.40;;;;;;4962411;28;20027;-68
2023/10/17 12:10:02;;;;;;;17.23;10.45;;;384.30;2176.00;;;;;;4978545;28;20035;-68
2023/10/17 12:12:30;;;;;;;13.82;8.52;;;384.00;2124.80;;;;;;4969411;28;20039;-69
2023/10/17 12:14:57;;;;;;;12.40;8.50;;;384.00;2176.00;;;;;;4971480;28;20038;-68
2023/10/17 12:17:23;;;;;;;12.70;8.70;;;384.30;2201.60;;;;;;4980776;28;20038;-68
2023/10/17 12:19:51;;;;;;;48.40;32.05;;;359.30;2201.60;;;;;;4974193;28;20518;-68
2023/10/17 12:22:17;;;;;;;15.63;9.82;;;384.00;2150.40;;;;;;4974941;28;20700;-68
2023/10/17 12:24:42;;;;;;;7.85;6.45;;;384.00;2176.00;;;;;;4969347;28;20058;-66
2023/10/17 12:27:12;;;;;;;8.93;5.93;;;384.10;2201.60;;;;;;4964424;28;20029;-69
2023/10/17 12:29:38;;;;;;;8.05;6.55;;;359.30;2099.20;;;;;;4965921;28;20034;-64
2023/10/17 12:32:05;;;;;;;9.85;6.15;;;359.10;2099.20;;;;;;4968408;28;20102;-69
2023/10/17 12:34:31;;;;;;;9.48;5.43;;;359.30;2099.20;;;;;;4974470;28;20022;-67
2023/10/17 12:36:57;;;;;;;9.75;6.93;;;384.30;2124.80;;;;;;4972949;28;20468;-67
2023/10/17 12:39:31;;;;;;;8.68;6.63;;;384.50;2124.80;;;;;;4968919;28;20031;-70
2023/10/17 12:41:57;;;;;;;7.82;4.90;;;384.70;2099.20;;;;;;4964238;28;20034;-69
2023/10/17 12:44:25;;;;;;;10.13;7.63;;;384.90;2048.00;;;;;;4964919;28;20031;-67
2023/10/17 12:46:50;;;;;;;12.40;8.50;;;384.90;2099.20;;;;;;4980410;28;20492;-68
2023/10/17 12:49:16;;;;;;;10.15;6.70;;;384.60;1971.20;;;;;;4969045;28;20035;-67
2023/10/17 12:51:43;;;;;;;17.77;11.80;;;384.50;1971.20;;;;;;4971534;28;20025;-68
2023/10/17 12:54:09;;;;;;;11.10;7.45;;;384.40;1996.80;;;;;;4964208;28;20054;-66
2023/10/17 12:56:39;;;;;;;9.15;5.85;;;384.00;2022.40;;;;;;4966973;28;20485;-69
2023/10/17 12:59:07;;;;;;;15.00;8.20;;;359.00;2022.40;;;;;;4964717;28;20128;-69
2023/10/17 13:01:37;;;;;;;29.65;20.20;;;359.10;2048.00;;;;;;4964668;28;20031;-69
2023/10/17 13:04:03;;;;;;;9.02;6.10;;;358.90;2099.20;;;;;;4962295;28;20384;-68
2023/10/17 13:06:29;;;;;;;10.38;6.53;;;359.10;2073.60;;;;;;4960934;28;20035;-67
2023/10/17 13:08:57;;;;;;;21.35;7.68;;;384.00;2073.60;;;;;;4976071;28;20547;-68
2023/10/17 13:11:24;;;;;;;10.80;7.53;;;359.20;2048.00;;;;;;4961948;28;20059;-69
2023/10/17 13:13:50;;;;;;;8.95;5.82;;;384.10;2048.00;;;;;;4974462;28;20047;-69
2023/10/17 13:16:16;;;;;;;14.25;7.35;;;359.10;2073.60;;;;;;4968166;28;20373;-66
2023/10/17 13:18:41;;;;;;;9.13;6.30;;;359.00;2099.20;;;;;;4969339;28;20491;-67
2023/10/17 13:21:13;;;;;;;13.68;9.38;;;359.20;2073.60;;;;;;4962994;28;20042;-68
2023/10/17 13:23:44;;;;;;;10.35;6.10;;;359.10;2073.60;;;;;;4968025;28;20030;-69
2023/10/17 13:26:18;;;;;;;13.38;7.28;;;359.30;2099.20;;;;;;4969163;28;20594;-69
2023/10/17 13:28:44;;;;;;;12.55;9.10;;;359.10;2073.60;;;;;;4963406;28;20030;-68
2023/10/17 13:31:10;;;;;;;12.63;7.50;;;359.20;2099.20;;;;;;4960030;28;20039;-69
2023/10/17 13:33:38;;;;;;;11.55;7.57;;;358.80;2073.60;;;;;;4974402;28;20029;-69
2023/10/17 13:36:07;;;;;;;10.57;7.90;;;358.90;2099.20;;;;;;4965598;28;20027;-68
2023/10/17 13:38:36;;;;;;;11.70;7.15;;;358.80;2099.20;;;;;;4974533;28;20026;-68
2023/10/17 13:41:09;;;;;;;13.48;7.65;;;358.80;2099.20;;;;;;4969637;28;20062;-68
2023/10/17 13:43:35;;;;;;;14.07;9.57;;;358.90;2073.60;;;;;;4933540;28;20166;-69
2023/10/17 13:46:09;;;;;;;12.13;8.00;;;359.00;2150.40;;;;;;4961660;28;20034;-68
2023/10/17 13:48:36;;;;;;;9.88;7.38;;;359.00;2124.80;;;;;;4972376;28;20045;-68
2023/10/17 13:51:06;;;;;;;11.00;7.25;;;359.20;2150.40;;;;;;4970568;28;20109;-68
2023/10/17 13:53:36;;;;;;;14.60;7.65;;;384.00;2124.80;;;;;;4966689;28;20019;-68
2023/10/17 13:56:15;;;;;;;18.38;12.80;;;359.30;2048.00;;;;;;4971096;28;20081;-69
2023/10/17 13:58:41;;;;;;;12.77;9.23;;;359.20;2073.60;;;;;;4978169;28;20011;-70
2023/10/17 14:03:54;;;;;;;26.17;14.88;;;359.30;2048.00;;;;;;4989712;28;20025;-69
2023/10/17 14:06:21;;;;;;;22.60;15.55;;;359.10;2073.60;;;;;;4991229;28;20037;-70
2023/10/17 14:08:46;;;;;;;15.30;7.35;;;359.20;2048.00;;;;;;4990718;28;20018;-69
2023/10/17 14:11:17;;;;;;;11.73;6.35;;;359.20;2022.40;;;;;;4990166;28;20397;-71
2023/10/17 14:13:47;;;;;;;10.68;6.97;;;359.10;2048.00;;;;;;4990074;28;20404;-69
2023/10/17 14:16:13;;;;;;;13.52;7.88;;;359.10;2073.60;;;;;;4989002;28;20092;-68
2023/10/17 14:18:46;;;;;;;29.45;15.45;;;359.00;2048.00;;;;;;4987859;28;20765;-67
2023/10/17 14:23:57;;;;;;;25.63;15.95;;;358.90;2124.80;;;;;;4984057;28;20124;-68
2023/10/17 14:26:29;;;;;;;15.32;11.15;;;358.80;2073.60;;;;;;4988289;28;20037;-67
2023/10/17 14:29:00;;;;;;;18.98;10.93;;;358.70;2099.20;;;;;;4982846;28;20441;-69
2023/10/17 14:31:27;;;;;;;24.83;15.45;;;358.60;2099.20;;;;;;4972129;28;20121;-69
2023/10/17 14:33:55;;;;;;;29.23;23.92;;;358.50;2124.80;;;;;;4988050;28;20031;-69
2023/10/17 14:36:21;;;;;;;13.25;11.90;;;358.50;2124.80;;;;;;4987417;28;20026;-69
2023/10/17 14:38:48;;;;;;;12.93;9.15;;;333.70;2099.20;;;;;;4981066;28;20038;-69
2023/10/17 14:41:14;;;;;;;12.45;10.05;;;333.70;2124.80;;;;;;4982933;28;20392;-68
2023/10/17 14:43:46;;;;;;;19.40;13.43;;;333.70;2150.40;;;;;;4987057;28;20402;-69
2023/10/17 14:46:13;;;;;;;33.20;19.77;;;333.60;2150.40;;;;;;4988667;28;20041;-69
2023/10/17 14:48:40;;;;;;;19.98;11.40;;;333.60;2176.00;;;;;;4988545;28;20026;-69
2023/10/17 14:51:07;;;;;;;22.08;16.65;;;333.50;2176.00;;;;;;4988242;28;20089;-69